sensor_id;sensor_type;location;lat;lon;timestamp;P1;durP1;ratioP1;P2;durP2;ratioP2
52284;SDS011;38238;53.304;6.606;2022-12-11T00:00:19;28.48;;;17.50;;
52284;SDS011;38238;53.304;6.606;2022-12-11T00:02:45;29.98;;;19.95;;
52284;SDS011;38238;53.304;6.606;2022-12-11T00:05:11;24.13;;;17.55;;
52284;SDS011;38238;53.304;6.606;2022-12-11T00:07:36;35.33;;;19.10;;
52284;SDS011;38238;53.304;6.606;2022-12-11T00:10:02;35.67;;;19.90;;
52284;SDS011;38238;53.304;6.606;2022-12-11T00:12:29;30.20;;;20.70;;
52284;SDS011;38238;53.304;6.606;2022-12-11T00:14:55;29.67;;;18.52;;
52284;SDS011;38238;53.304;6.606;2022-12-11T00:17:21;32.22;;;21.00;;
52284;SDS011;38238;53.304;6.606;2022-12-11T00:19:47;30.70;;;19.40;;
52284;SDS011;38238;53.304;6.606;2022-12-11T00:22:12;40.40;;;19.98;;
52284;SDS011;38238;53.304;6.606;2022-12-11T00:24:38;29.30;;;19.45;;
52284;SDS011;38238;53.304;6.606;2022-12-11T00:27:04;25.90;;;16.60;;
52284;SDS011;38238;53.304;6.606;2022-12-11T00:29:29;28.10;;;17.60;;
52284;SDS011;38238;53.304;6.606;2022-12-11T00:31:55;30.27;;;18.10;;
52284;SDS011;38238;53.304;6.606;2022-12-11T00:34:21;26.45;;;16.45;;
52284;SDS011;38238;53.304;6.606;2022-12-11T00:36:47;27.83;;;19.02;;
52284;SDS011;38238;53.304;6.606;2022-12-11T00:39:12;32.30;;;20.33;;
52284;SDS011;38238;53.304;6.606;2022-12-11T00:41:38;31.52;;;21.02;;
52284;SDS011;38238;53.304;6.606;2022-12-11T00:44:04;34.47;;;19.67;;
52284;SDS011;38238;53.304;6.606;2022-12-11T00:46:30;34.38;;;20.30;;
52284;SDS011;38238;53.304;6.606;2022-12-11T00:48:55;35.00;;;19.55;;
52284;SDS011;38238;53.304;6.606;2022-12-11T00:51:21;29.45;;;17.75;;
52284;SDS011;38238;53.304;6.606;2022-12-11T00:53:47;27.42;;;18.75;;
52284;SDS011;38238;53.304;6.606;2022-12-11T00:56:17;29.85;;;16.48;;
52284;SDS011;38238;53.304;6.606;2022-12-11T00:58:44;28.48;;;19.35;;
52284;SDS011;38238;53.304;6.606;2022-12-11T01:01:13;36.67;;;20.38;;
52284;SDS011;38238;53.304;6.606;2022-12-11T01:03:43;33.95;;;19.67;;
52284;SDS011;38238;53.304;6.606;2022-12-11T01:06:13;33.17;;;17.65;;
52284;SDS011;38238;53.304;6.606;2022-12-11T01:08:41;26.48;;;17.92;;
52284;SDS011;38238;53.304;6.606;2022-12-11T01:11:09;31.92;;;19.75;;
52284;SDS011;38238;53.304;6.606;2022-12-11T01:13:36;30.70;;;19.38;;
52284;SDS011;38238;53.304;6.606;2022-12-11T01:16:10;30.55;;;19.65;;
52284;SDS011;38238;53.304;6.606;2022-12-11T01:18:40;29.80;;;17.73;;
52284;SDS011;38238;53.304;6.606;2022-12-11T01:21:07;33.53;;;18.25;;
52284;SDS011;38238;53.304;6.606;2022-12-11T01:23:35;32.97;;;18.50;;
52284;SDS011;38238;53.304;6.606;2022-12-11T01:26:06;29.95;;;18.15;;
52284;SDS011;38238;53.304;6.606;2022-12-11T01:28:36;31.90;;;19.10;;
52284;SDS011;38238;53.304;6.606;2022-12-11T01:31:02;26.80;;;17.85;;
52284;SDS011;38238;53.304;6.606;2022-12-11T01:33:33;32.47;;;18.85;;
52284;SDS011;38238;53.304;6.606;2022-12-11T01:35:58;32.72;;;17.25;;
52284;SDS011;38238;53.304;6.606;2022-12-11T01:38:24;27.95;;;17.38;;
52284;SDS011;38238;53.304;6.606;2022-12-11T01:40:50;28.00;;;16.90;;
52284;SDS011;38238;53.304;6.606;2022-12-11T01:43:16;25.17;;;15.65;;
52284;SDS011;38238;53.304;6.606;2022-12-11T01:45:44;29.02;;;17.73;;
52284;SDS011;38238;53.304;6.606;2022-12-11T01:48:13;25.30;;;15.10;;
52284;SDS011;38238;53.304;6.606;2022-12-11T01:50:48;27.88;;;17.02;;
52284;SDS011;38238;53.304;6.606;2022-12-11T01:53:37;30.58;;;16.50;;
52284;SDS011;38238;53.304;6.606;2022-12-11T01:56:04;27.27;;;18.05;;
52284;SDS011;38238;53.304;6.606;2022-12-11T01:58:33;26.85;;;16.05;;
52284;SDS011;38238;53.304;6.606;2022-12-11T02:01:05;25.77;;;16.08;;
52284;SDS011;38238;53.304;6.606;2022-12-11T02:03:32;25.70;;;17.05;;
52284;SDS011;38238;53.304;6.606;2022-12-11T02:06:01;30.27;;;17.02;;
52284;SDS011;38238;53.304;6.606;2022-12-11T02:08:27;26.80;;;16.45;;
52284;SDS011;38238;53.304;6.606;2022-12-11T02:11:09;29.58;;;17.58;;
52284;SDS011;38238;53.304;6.606;2022-12-11T02:16:20;33.45;;;17.38;;
52284;SDS011;38238;53.304;6.606;2022-12-11T02:21:24;32.17;;;19.17;;
52284;SDS011;38238;53.304;6.606;2022-12-11T02:24:03;28.35;;;18.05;;
52284;SDS011;38238;53.304;6.606;2022-12-11T02:29:37;32.97;;;19.42;;
52284;SDS011;38238;53.304;6.606;2022-12-11T02:32:12;33.65;;;19.30;;
52284;SDS011;38238;53.304;6.606;2022-12-11T02:34:48;37.53;;;21.02;;
52284;SDS011;38238;53.304;6.606;2022-12-11T02:37:40;34.92;;;19.50;;
52284;SDS011;38238;53.304;6.606;2022-12-11T02:40:09;33.60;;;20.60;;
52284;SDS011;38238;53.304;6.606;2022-12-11T02:42:39;34.15;;;19.35;;
52284;SDS011;38238;53.304;6.606;2022-12-11T02:45:08;36.58;;;19.75;;
52284;SDS011;38238;53.304;6.606;2022-12-11T02:47:35;37.67;;;19.63;;
52284;SDS011;38238;53.304;6.606;2022-12-11T02:50:02;38.17;;;20.02;;
52284;SDS011;38238;53.304;6.606;2022-12-11T02:52:34;34.25;;;19.90;;
52284;SDS011;38238;53.304;6.606;2022-12-11T02:55:01;33.50;;;20.60;;
52284;SDS011;38238;53.304;6.606;2022-12-11T02:57:32;36.42;;;19.45;;
52284;SDS011;38238;53.304;6.606;2022-12-11T03:00:04;40.40;;;21.20;;
52284;SDS011;38238;53.304;6.606;2022-12-11T03:02:31;41.88;;;20.58;;
52284;SDS011;38238;53.304;6.606;2022-12-11T03:04:56;40.40;;;21.42;;
52284;SDS011;38238;53.304;6.606;2022-12-11T03:07:25;43.15;;;21.25;;
52284;SDS011;38238;53.304;6.606;2022-12-11T03:09:52;36.70;;;21.17;;
52284;SDS011;38238;53.304;6.606;2022-12-11T03:12:22;38.83;;;21.63;;
52284;SDS011;38238;53.304;6.606;2022-12-11T03:14:57;45.33;;;21.52;;
52284;SDS011;38238;53.304;6.606;2022-12-11T03:17:28;38.47;;;20.50;;
52284;SDS011;38238;53.304;6.606;2022-12-11T03:20:05;39.40;;;21.33;;
52284;SDS011;38238;53.304;6.606;2022-12-11T03:25:34;38.30;;;21.20;;
52284;SDS011;38238;53.304;6.606;2022-12-11T03:28:50;38.85;;;21.80;;
52284;SDS011;38238;53.304;6.606;2022-12-11T03:31:30;36.72;;;20.83;;
52284;SDS011;38238;53.304;6.606;2022-12-11T03:34:08;33.75;;;20.13;;
52284;SDS011;38238;53.304;6.606;2022-12-11T03:36:40;44.72;;;20.90;;
52284;SDS011;38238;53.304;6.606;2022-12-11T03:39:29;35.58;;;20.75;;
52284;SDS011;38238;53.304;6.606;2022-12-11T03:42:01;41.08;;;20.60;;
52284;SDS011;38238;53.304;6.606;2022-12-11T03:44:30;35.67;;;18.73;;
52284;SDS011;38238;53.304;6.606;2022-12-11T03:46:59;35.10;;;21.00;;
52284;SDS011;38238;53.304;6.606;2022-12-11T03:49:28;31.55;;;17.88;;
52284;SDS011;38238;53.304;6.606;2022-12-11T03:51:57;36.42;;;20.67;;
52284;SDS011;38238;53.304;6.606;2022-12-11T03:54:26;31.95;;;20.15;;
52284;SDS011;38238;53.304;6.606;2022-12-11T03:56:54;35.45;;;19.30;;
52284;SDS011;38238;53.304;6.606;2022-12-11T03:59:22;38.17;;;18.73;;
52284;SDS011;38238;53.304;6.606;2022-12-11T04:01:48;36.13;;;18.60;;
52284;SDS011;38238;53.304;6.606;2022-12-11T04:04:14;34.42;;;19.25;;
52284;SDS011;38238;53.304;6.606;2022-12-11T04:06:39;34.58;;;18.50;;
52284;SDS011;38238;53.304;6.606;2022-12-11T04:09:05;32.10;;;19.23;;
52284;SDS011;38238;53.304;6.606;2022-12-11T04:11:31;32.85;;;18.33;;
52284;SDS011;38238;53.304;6.606;2022-12-11T04:14:06;36.83;;;18.42;;
52284;SDS011;38238;53.304;6.606;2022-12-11T04:16:52;33.10;;;19.85;;
52284;SDS011;38238;53.304;6.606;2022-12-11T04:19:19;33.13;;;19.67;;
52284;SDS011;38238;53.304;6.606;2022-12-11T04:22:04;33.58;;;17.85;;
52284;SDS011;38238;53.304;6.606;2022-12-11T04:24:48;42.28;;;20.75;;
52284;SDS011;38238;53.304;6.606;2022-12-11T04:27:15;37.97;;;21.73;;
52284;SDS011;38238;53.304;6.606;2022-12-11T04:30:02;36.33;;;19.63;;
52284;SDS011;38238;53.304;6.606;2022-12-11T04:32:29;37.70;;;19.50;;
52284;SDS011;38238;53.304;6.606;2022-12-11T04:34:55;33.17;;;19.50;;
52284;SDS011;38238;53.304;6.606;2022-12-11T04:37:20;36.03;;;20.15;;
52284;SDS011;38238;53.304;6.606;2022-12-11T04:39:46;37.58;;;21.90;;
52284;SDS011;38238;53.304;6.606;2022-12-11T04:42:12;32.40;;;18.33;;
52284;SDS011;38238;53.304;6.606;2022-12-11T04:44:38;40.65;;;18.67;;
52284;SDS011;38238;53.304;6.606;2022-12-11T04:47:03;30.73;;;16.95;;
52284;SDS011;38238;53.304;6.606;2022-12-11T04:49:29;33.00;;;18.40;;
52284;SDS011;38238;53.304;6.606;2022-12-11T04:51:54;37.05;;;20.30;;
52284;SDS011;38238;53.304;6.606;2022-12-11T04:54:20;34.13;;;18.80;;
52284;SDS011;38238;53.304;6.606;2022-12-11T04:56:46;34.63;;;20.38;;
52284;SDS011;38238;53.304;6.606;2022-12-11T04:59:11;31.80;;;19.17;;
52284;SDS011;38238;53.304;6.606;2022-12-11T05:01:37;33.90;;;17.83;;
52284;SDS011;38238;53.304;6.606;2022-12-11T05:04:03;40.53;;;18.42;;
52284;SDS011;38238;53.304;6.606;2022-12-11T05:06:28;36.97;;;20.08;;
52284;SDS011;38238;53.304;6.606;2022-12-11T05:08:54;33.75;;;19.23;;
52284;SDS011;38238;53.304;6.606;2022-12-11T05:11:20;32.90;;;19.70;;
52284;SDS011;38238;53.304;6.606;2022-12-11T05:13:46;30.05;;;19.02;;
52284;SDS011;38238;53.304;6.606;2022-12-11T05:16:13;34.60;;;19.52;;
52284;SDS011;38238;53.304;6.606;2022-12-11T05:18:40;29.30;;;18.95;;
52284;SDS011;38238;53.304;6.606;2022-12-11T05:21:07;34.85;;;21.20;;
52284;SDS011;38238;53.304;6.606;2022-12-11T05:23:35;36.60;;;21.48;;
52284;SDS011;38238;53.304;6.606;2022-12-11T05:26:02;30.17;;;20.13;;
52284;SDS011;38238;53.304;6.606;2022-12-11T05:28:30;40.47;;;20.67;;
52284;SDS011;38238;53.304;6.606;2022-12-11T05:30:58;36.83;;;20.92;;
52284;SDS011;38238;53.304;6.606;2022-12-11T05:33:25;35.58;;;20.80;;
52284;SDS011;38238;53.304;6.606;2022-12-11T05:35:52;38.45;;;21.98;;
52284;SDS011;38238;53.304;6.606;2022-12-11T05:38:17;31.50;;;19.63;;
52284;SDS011;38238;53.304;6.606;2022-12-11T05:40:43;31.63;;;17.73;;
52284;SDS011;38238;53.304;6.606;2022-12-11T05:43:09;35.55;;;19.95;;
52284;SDS011;38238;53.304;6.606;2022-12-11T05:45:35;38.22;;;19.77;;
52284;SDS011;38238;53.304;6.606;2022-12-11T05:48:01;33.42;;;20.70;;
52284;SDS011;38238;53.304;6.606;2022-12-11T05:50:27;28.98;;;17.10;;
52284;SDS011;38238;53.304;6.606;2022-12-11T05:52:52;34.53;;;19.73;;
52284;SDS011;38238;53.304;6.606;2022-12-11T05:55:18;35.88;;;20.33;;
52284;SDS011;38238;53.304;6.606;2022-12-11T05:57:44;36.25;;;19.13;;
52284;SDS011;38238;53.304;6.606;2022-12-11T06:00:10;34.15;;;19.73;;
52284;SDS011;38238;53.304;6.606;2022-12-11T06:02:37;32.13;;;19.38;;
52284;SDS011;38238;53.304;6.606;2022-12-11T06:05:02;34.95;;;18.33;;
52284;SDS011;38238;53.304;6.606;2022-12-11T06:07:28;39.03;;;19.58;;
52284;SDS011;38238;53.304;6.606;2022-12-11T06:09:54;32.53;;;19.25;;
52284;SDS011;38238;53.304;6.606;2022-12-11T06:12:19;40.20;;;20.98;;
52284;SDS011;38238;53.304;6.606;2022-12-11T06:14:45;38.22;;;20.45;;
52284;SDS011;38238;53.304;6.606;2022-12-11T06:17:11;33.15;;;18.48;;
52284;SDS011;38238;53.304;6.606;2022-12-11T06:19:36;32.35;;;19.60;;
52284;SDS011;38238;53.304;6.606;2022-12-11T06:22:02;33.83;;;18.38;;
52284;SDS011;38238;53.304;6.606;2022-12-11T06:24:28;30.25;;;15.88;;
52284;SDS011;38238;53.304;6.606;2022-12-11T06:26:54;33.30;;;18.15;;
52284;SDS011;38238;53.304;6.606;2022-12-11T06:29:20;34.45;;;19.13;;
52284;SDS011;38238;53.304;6.606;2022-12-11T06:31:45;34.50;;;19.45;;
52284;SDS011;38238;53.304;6.606;2022-12-11T06:34:11;33.88;;;18.75;;
52284;SDS011;38238;53.304;6.606;2022-12-11T06:36:38;34.70;;;18.95;;
52284;SDS011;38238;53.304;6.606;2022-12-11T06:39:04;36.50;;;19.80;;
52284;SDS011;38238;53.304;6.606;2022-12-11T06:41:30;37.38;;;20.50;;
52284;SDS011;38238;53.304;6.606;2022-12-11T06:43:55;39.00;;;21.60;;
52284;SDS011;38238;53.304;6.606;2022-12-11T06:46:21;31.88;;;19.20;;
52284;SDS011;38238;53.304;6.606;2022-12-11T06:48:47;35.78;;;19.38;;
52284;SDS011;38238;53.304;6.606;2022-12-11T06:51:14;33.58;;;19.52;;
52284;SDS011;38238;53.304;6.606;2022-12-11T06:53:42;31.95;;;17.83;;
52284;SDS011;38238;53.304;6.606;2022-12-11T06:56:12;29.00;;;17.38;;
52284;SDS011;38238;53.304;6.606;2022-12-11T06:58:39;30.25;;;18.02;;
52284;SDS011;38238;53.304;6.606;2022-12-11T07:01:39;28.50;;;17.05;;
52284;SDS011;38238;53.304;6.606;2022-12-11T07:03:58;28.77;;;18.02;;
52284;SDS011;38238;53.304;6.606;2022-12-11T07:06:24;30.23;;;18.45;;
52284;SDS011;38238;53.304;6.606;2022-12-11T07:08:52;38.13;;;22.33;;
52284;SDS011;38238;53.304;6.606;2022-12-11T07:11:18;32.25;;;19.58;;
52284;SDS011;38238;53.304;6.606;2022-12-11T07:13:45;32.03;;;19.88;;
52284;SDS011;38238;53.304;6.606;2022-12-11T07:16:12;33.22;;;20.55;;
52284;SDS011;38238;53.304;6.606;2022-12-11T07:18:39;30.10;;;19.17;;
52284;SDS011;38238;53.304;6.606;2022-12-11T07:21:06;28.70;;;17.80;;
52284;SDS011;38238;53.304;6.606;2022-12-11T07:23:33;31.45;;;18.33;;
52284;SDS011;38238;53.304;6.606;2022-12-11T07:26:06;35.10;;;19.33;;
52284;SDS011;38238;53.304;6.606;2022-12-11T07:28:34;32.25;;;18.63;;
52284;SDS011;38238;53.304;6.606;2022-12-11T07:31:04;34.40;;;19.20;;
52284;SDS011;38238;53.304;6.606;2022-12-11T07:33:40;33.22;;;18.17;;
52284;SDS011;38238;53.304;6.606;2022-12-11T07:36:07;31.63;;;19.80;;
52284;SDS011;38238;53.304;6.606;2022-12-11T07:38:34;36.25;;;20.13;;
52284;SDS011;38238;53.304;6.606;2022-12-11T07:41:01;29.23;;;18.20;;
52284;SDS011;38238;53.304;6.606;2022-12-11T07:43:29;33.55;;;20.50;;
52284;SDS011;38238;53.304;6.606;2022-12-11T07:45:59;40.00;;;20.38;;
52284;SDS011;38238;53.304;6.606;2022-12-11T07:48:26;33.08;;;19.40;;
52284;SDS011;38238;53.304;6.606;2022-12-11T07:50:52;29.25;;;18.42;;
52284;SDS011;38238;53.304;6.606;2022-12-11T07:53:18;36.25;;;20.33;;
52284;SDS011;38238;53.304;6.606;2022-12-11T07:55:43;42.50;;;20.85;;
52284;SDS011;38238;53.304;6.606;2022-12-11T07:58:09;31.30;;;20.02;;
52284;SDS011;38238;53.304;6.606;2022-12-11T08:00:35;29.65;;;19.08;;
52284;SDS011;38238;53.304;6.606;2022-12-11T08:03:00;33.80;;;19.10;;
52284;SDS011;38238;53.304;6.606;2022-12-11T08:05:26;38.30;;;20.45;;
52284;SDS011;38238;53.304;6.606;2022-12-11T08:07:52;33.72;;;20.30;;
52284;SDS011;38238;53.304;6.606;2022-12-11T08:10:17;34.90;;;19.35;;
52284;SDS011;38238;53.304;6.606;2022-12-11T08:12:43;35.50;;;20.70;;
52284;SDS011;38238;53.304;6.606;2022-12-11T08:15:09;33.50;;;19.40;;
52284;SDS011;38238;53.304;6.606;2022-12-11T08:17:35;32.83;;;17.45;;
52284;SDS011;38238;53.304;6.606;2022-12-11T08:20:00;32.38;;;18.17;;
52284;SDS011;38238;53.304;6.606;2022-12-11T08:22:26;36.75;;;20.17;;
52284;SDS011;38238;53.304;6.606;2022-12-11T08:24:52;29.35;;;19.70;;
52284;SDS011;38238;53.304;6.606;2022-12-11T08:27:17;32.90;;;20.23;;
52284;SDS011;38238;53.304;6.606;2022-12-11T08:29:43;28.35;;;18.67;;
52284;SDS011;38238;53.304;6.606;2022-12-11T08:32:10;31.25;;;17.77;;
52284;SDS011;38238;53.304;6.606;2022-12-11T08:34:37;33.63;;;18.73;;
52284;SDS011;38238;53.304;6.606;2022-12-11T08:37:04;33.97;;;18.88;;
52284;SDS011;38238;53.304;6.606;2022-12-11T08:39:29;28.15;;;17.00;;
52284;SDS011;38238;53.304;6.606;2022-12-11T08:41:55;36.83;;;18.88;;
52284;SDS011;38238;53.304;6.606;2022-12-11T08:44:21;33.25;;;19.33;;
52284;SDS011;38238;53.304;6.606;2022-12-11T08:46:49;37.50;;;18.42;;
52284;SDS011;38238;53.304;6.606;2022-12-11T08:49:14;34.65;;;19.15;;
52284;SDS011;38238;53.304;6.606;2022-12-11T08:51:40;26.35;;;16.80;;
52284;SDS011;38238;53.304;6.606;2022-12-11T08:54:06;31.30;;;19.33;;
52284;SDS011;38238;53.304;6.606;2022-12-11T08:56:31;35.40;;;18.75;;
52284;SDS011;38238;53.304;6.606;2022-12-11T08:59:00;31.98;;;16.67;;
52284;SDS011;38238;53.304;6.606;2022-12-11T09:01:27;32.40;;;18.17;;
52284;SDS011;38238;53.304;6.606;2022-12-11T09:03:54;27.08;;;16.23;;
52284;SDS011;38238;53.304;6.606;2022-12-11T09:06:21;39.00;;;20.85;;
52284;SDS011;38238;53.304;6.606;2022-12-11T09:08:49;31.10;;;18.52;;
52284;SDS011;38238;53.304;6.606;2022-12-11T09:11:17;34.88;;;20.50;;
52284;SDS011;38238;53.304;6.606;2022-12-11T09:13:51;32.13;;;19.20;;
52284;SDS011;38238;53.304;6.606;2022-12-11T09:16:19;32.80;;;20.50;;
52284;SDS011;38238;53.304;6.606;2022-12-11T09:18:46;34.38;;;20.05;;
52284;SDS011;38238;53.304;6.606;2022-12-11T09:21:14;34.03;;;18.70;;
52284;SDS011;38238;53.304;6.606;2022-12-11T09:23:41;33.20;;;19.38;;
52284;SDS011;38238;53.304;6.606;2022-12-11T09:26:10;34.17;;;19.13;;
52284;SDS011;38238;53.304;6.606;2022-12-11T09:28:37;28.65;;;17.05;;
52284;SDS011;38238;53.304;6.606;2022-12-11T09:31:10;30.90;;;20.05;;
52284;SDS011;38238;53.304;6.606;2022-12-11T09:33:38;34.90;;;21.85;;
52284;SDS011;38238;53.304;6.606;2022-12-11T09:36:04;35.63;;;19.05;;
52284;SDS011;38238;53.304;6.606;2022-12-11T09:38:31;34.00;;;20.67;;
52284;SDS011;38238;53.304;6.606;2022-12-11T09:40:57;36.25;;;19.58;;
52284;SDS011;38238;53.304;6.606;2022-12-11T09:43:36;36.08;;;19.73;;
52284;SDS011;38238;53.304;6.606;2022-12-11T09:46:07;34.90;;;19.70;;
52284;SDS011;38238;53.304;6.606;2022-12-11T09:48:37;35.15;;;19.38;;
52284;SDS011;38238;53.304;6.606;2022-12-11T09:51:09;32.13;;;20.25;;
52284;SDS011;38238;53.304;6.606;2022-12-11T09:53:50;35.75;;;19.15;;
52284;SDS011;38238;53.304;6.606;2022-12-11T09:56:21;32.42;;;19.58;;
52284;SDS011;38238;53.304;6.606;2022-12-11T10:02:17;33.97;;;19.60;;
52284;SDS011;38238;53.304;6.606;2022-12-11T10:04:47;37.58;;;20.55;;
52284;SDS011;38238;53.304;6.606;2022-12-11T10:07:29;41.55;;;20.73;;
52284;SDS011;38238;53.304;6.606;2022-12-11T10:12:47;42.92;;;21.13;;
52284;SDS011;38238;53.304;6.606;2022-12-11T10:18:25;31.55;;;18.83;;
52284;SDS011;38238;53.304;6.606;2022-12-11T10:20:53;38.58;;;22.67;;
52284;SDS011;38238;53.304;6.606;2022-12-11T10:23:21;34.20;;;20.20;;
52284;SDS011;38238;53.304;6.606;2022-12-11T10:26:01;31.33;;;19.40;;
52284;SDS011;38238;53.304;6.606;2022-12-11T10:28:31;35.10;;;21.55;;
52284;SDS011;38238;53.304;6.606;2022-12-11T10:31:12;35.65;;;18.40;;
52284;SDS011;38238;53.304;6.606;2022-12-11T10:36:29;38.17;;;22.17;;
52284;SDS011;38238;53.304;6.606;2022-12-11T10:38:57;40.95;;;21.85;;
52284;SDS011;38238;53.304;6.606;2022-12-11T10:41:27;38.55;;;22.30;;
52284;SDS011;38238;53.304;6.606;2022-12-11T10:44:10;37.40;;;21.80;;
52284;SDS011;38238;53.304;6.606;2022-12-11T10:46:43;36.53;;;20.45;;
52284;SDS011;38238;53.304;6.606;2022-12-11T10:49:20;37.00;;;19.65;;
52284;SDS011;38238;53.304;6.606;2022-12-11T10:51:47;36.10;;;21.38;;
52284;SDS011;38238;53.304;6.606;2022-12-11T10:56:59;39.08;;;22.95;;
52284;SDS011;38238;53.304;6.606;2022-12-11T10:59:35;43.08;;;22.88;;
52284;SDS011;38238;53.304;6.606;2022-12-11T11:02:24;38.85;;;22.88;;
52284;SDS011;38238;53.304;6.606;2022-12-11T11:04:59;38.25;;;21.38;;
52284;SDS011;38238;53.304;6.606;2022-12-11T11:07:35;40.10;;;22.67;;
52284;SDS011;38238;53.304;6.606;2022-12-11T11:12:40;36.30;;;21.67;;
52284;SDS011;38238;53.304;6.606;2022-12-11T11:17:46;39.97;;;23.27;;
52284;SDS011;38238;53.304;6.606;2022-12-11T11:20:16;42.08;;;22.95;;
52284;SDS011;38238;53.304;6.606;2022-12-11T11:22:45;33.90;;;22.08;;
52284;SDS011;38238;53.304;6.606;2022-12-11T11:25:18;43.42;;;24.17;;
52284;SDS011;38238;53.304;6.606;2022-12-11T11:28:13;38.78;;;23.52;;
52284;SDS011;38238;53.304;6.606;2022-12-11T11:30:53;35.33;;;19.27;;
52284;SDS011;38238;53.304;6.606;2022-12-11T11:33:25;38.40;;;23.30;;
52284;SDS011;38238;53.304;6.606;2022-12-11T11:36:01;38.08;;;21.02;;
52284;SDS011;38238;53.304;6.606;2022-12-11T11:41:39;33.88;;;20.00;;
52284;SDS011;38238;53.304;6.606;2022-12-11T11:44:33;37.45;;;21.85;;
52284;SDS011;38238;53.304;6.606;2022-12-11T11:47:12;33.78;;;17.63;;
52284;SDS011;38238;53.304;6.606;2022-12-11T11:49:46;40.50;;;23.20;;
52284;SDS011;38238;53.304;6.606;2022-12-11T11:52:40;43.03;;;23.98;;
52284;SDS011;38238;53.304;6.606;2022-12-11T11:57:59;37.47;;;22.58;;
52284;SDS011;38238;53.304;6.606;2022-12-11T12:00:28;42.80;;;25.70;;
52284;SDS011;38238;53.304;6.606;2022-12-11T12:03:16;40.17;;;25.60;;
52284;SDS011;38238;53.304;6.606;2022-12-11T12:08:36;38.92;;;26.02;;
52284;SDS011;38238;53.304;6.606;2022-12-11T12:19:33;40.75;;;23.30;;
52284;SDS011;38238;53.304;6.606;2022-12-11T12:25:05;41.30;;;23.42;;
52284;SDS011;38238;53.304;6.606;2022-12-11T12:27:44;38.60;;;24.25;;
52284;SDS011;38238;53.304;6.606;2022-12-11T12:33:30;43.70;;;24.75;;
52284;SDS011;38238;53.304;6.606;2022-12-11T12:36:12;43.38;;;25.55;;
52284;SDS011;38238;53.304;6.606;2022-12-11T12:38:52;37.55;;;24.00;;
52284;SDS011;38238;53.304;6.606;2022-12-11T12:44:12;38.05;;;23.70;;
52284;SDS011;38238;53.304;6.606;2022-12-11T12:49:27;36.15;;;24.15;;
52284;SDS011;38238;53.304;6.606;2022-12-11T12:51:57;42.97;;;25.73;;
52284;SDS011;38238;53.304;6.606;2022-12-11T12:54:24;39.10;;;26.00;;
52284;SDS011;38238;53.304;6.606;2022-12-11T12:56:51;41.25;;;24.48;;
52284;SDS011;38238;53.304;6.606;2022-12-11T12:59:18;38.67;;;26.70;;
52284;SDS011;38238;53.304;6.606;2022-12-11T13:01:46;38.90;;;24.27;;
52284;SDS011;38238;53.304;6.606;2022-12-11T13:04:25;38.40;;;25.25;;
52284;SDS011;38238;53.304;6.606;2022-12-11T13:12:45;40.25;;;24.08;;
52284;SDS011;38238;53.304;6.606;2022-12-11T13:18:01;38.50;;;22.85;;
52284;SDS011;38238;53.304;6.606;2022-12-11T13:20:30;42.30;;;25.38;;
52284;SDS011;38238;53.304;6.606;2022-12-11T13:25:52;42.15;;;26.52;;
52284;SDS011;38238;53.304;6.606;2022-12-11T13:28:24;39.47;;;25.20;;
52284;SDS011;38238;53.304;6.606;2022-12-11T13:31:35;43.15;;;26.13;;
52284;SDS011;38238;53.304;6.606;2022-12-11T13:33:45;35.65;;;23.45;;
52284;SDS011;38238;53.304;6.606;2022-12-11T13:38:50;38.70;;;27.73;;
52284;SDS011;38238;53.304;6.606;2022-12-11T13:41:18;40.42;;;26.27;;
52284;SDS011;38238;53.304;6.606;2022-12-11T13:43:45;41.30;;;24.75;;
52284;SDS011;38238;53.304;6.606;2022-12-11T13:46:13;33.25;;;23.92;;
52284;SDS011;38238;53.304;6.606;2022-12-11T13:48:46;40.17;;;24.67;;
52284;SDS011;38238;53.304;6.606;2022-12-11T13:51:24;38.03;;;25.60;;
52284;SDS011;38238;53.304;6.606;2022-12-11T13:54:05;35.08;;;25.27;;
52284;SDS011;38238;53.304;6.606;2022-12-11T13:56:40;36.42;;;22.70;;
52284;SDS011;38238;53.304;6.606;2022-12-11T13:59:19;36.83;;;24.25;;
52284;SDS011;38238;53.304;6.606;2022-12-11T14:01:49;39.63;;;26.42;;
52284;SDS011;38238;53.304;6.606;2022-12-11T14:04:18;41.13;;;24.40;;
52284;SDS011;38238;53.304;6.606;2022-12-11T14:06:45;41.05;;;24.60;;
52284;SDS011;38238;53.304;6.606;2022-12-11T14:09:14;40.63;;;24.33;;
52284;SDS011;38238;53.304;6.606;2022-12-11T14:11:43;42.65;;;27.42;;
52284;SDS011;38238;53.304;6.606;2022-12-11T14:14:16;41.88;;;26.13;;
52284;SDS011;38238;53.304;6.606;2022-12-11T14:16:46;40.30;;;25.13;;
52284;SDS011;38238;53.304;6.606;2022-12-11T14:19:13;39.22;;;24.33;;
52284;SDS011;38238;53.304;6.606;2022-12-11T14:21:53;37.97;;;24.95;;
52284;SDS011;38238;53.304;6.606;2022-12-11T14:24:24;36.10;;;23.33;;
52284;SDS011;38238;53.304;6.606;2022-12-11T14:26:50;36.45;;;24.88;;
52284;SDS011;38238;53.304;6.606;2022-12-11T14:29:28;39.15;;;24.70;;
52284;SDS011;38238;53.304;6.606;2022-12-11T14:31:56;37.80;;;23.92;;
52284;SDS011;38238;53.304;6.606;2022-12-11T14:34:34;37.08;;;23.67;;
52284;SDS011;38238;53.304;6.606;2022-12-11T14:37:03;34.67;;;26.17;;
52284;SDS011;38238;53.304;6.606;2022-12-11T14:39:32;38.80;;;23.45;;
52284;SDS011;38238;53.304;6.606;2022-12-11T14:42:06;40.33;;;24.00;;
52284;SDS011;38238;53.304;6.606;2022-12-11T14:44:35;38.95;;;23.15;;
52284;SDS011;38238;53.304;6.606;2022-12-11T14:47:20;35.38;;;23.25;;
52284;SDS011;38238;53.304;6.606;2022-12-11T14:52:30;40.13;;;25.35;;
52284;SDS011;38238;53.304;6.606;2022-12-11T14:55:08;42.20;;;25.67;;
52284;SDS011;38238;53.304;6.606;2022-12-11T14:57:38;41.95;;;24.75;;
52284;SDS011;38238;53.304;6.606;2022-12-11T15:00:07;38.33;;;23.63;;
52284;SDS011;38238;53.304;6.606;2022-12-11T15:02:35;41.20;;;26.17;;
52284;SDS011;38238;53.304;6.606;2022-12-11T15:05:11;34.80;;;23.80;;
52284;SDS011;38238;53.304;6.606;2022-12-11T15:07:40;37.80;;;23.90;;
52284;SDS011;38238;53.304;6.606;2022-12-11T15:10:19;37.10;;;22.02;;
52284;SDS011;38238;53.304;6.606;2022-12-11T15:12:46;42.28;;;24.23;;
52284;SDS011;38238;53.304;6.606;2022-12-11T15:15:13;36.90;;;23.83;;
52284;SDS011;38238;53.304;6.606;2022-12-11T15:17:40;35.83;;;24.30;;
52284;SDS011;38238;53.304;6.606;2022-12-11T15:20:08;40.53;;;22.90;;
52284;SDS011;38238;53.304;6.606;2022-12-11T15:22:44;38.65;;;22.23;;
52284;SDS011;38238;53.304;6.606;2022-12-11T15:25:20;38.65;;;25.45;;
52284;SDS011;38238;53.304;6.606;2022-12-11T15:27:52;36.60;;;23.88;;
52284;SDS011;38238;53.304;6.606;2022-12-11T15:33:01;37.90;;;22.88;;
52284;SDS011;38238;53.304;6.606;2022-12-11T15:37:56;37.60;;;24.50;;
52284;SDS011;38238;53.304;6.606;2022-12-11T15:40:22;40.40;;;23.55;;
52284;SDS011;38238;53.304;6.606;2022-12-11T15:42:49;39.92;;;22.77;;
52284;SDS011;38238;53.304;6.606;2022-12-11T15:47:42;38.80;;;23.98;;
52284;SDS011;38238;53.304;6.606;2022-12-11T15:52:52;41.25;;;28.33;;
52284;SDS011;38238;53.304;6.606;2022-12-11T15:55:19;38.13;;;23.27;;
52284;SDS011;38238;53.304;6.606;2022-12-11T15:57:47;37.97;;;22.30;;
52284;SDS011;38238;53.304;6.606;2022-12-11T16:00:17;41.80;;;25.52;;
52284;SDS011;38238;53.304;6.606;2022-12-11T16:02:44;42.08;;;27.52;;